Flight Track Log - Related Links

Times and Time Zones

All times are in EDT time to prevent confusion due to time zone crossing. See the SKW5564 flight status page for this flight to view local times or setup timezone preferences in your user account.

Time Position Orientation Groundspeed Altitude Reporting Facility
EDT Latitude Longitude Course Direction KTS MPH feet Rate Location/Type
Sun 04:17:17 PM 37.6667 -122.3667 133° Southeast 184 212 1,600  Level Northern Cal TRACON
Sun 04:18:17 PM 37.7000 -122.4000 322° Northwest 241 277 4,100 2,633 Climbing Northern Cal TRACON
Sun 04:19:00 PM 37.4340 -122.3688 113° Southeast  Level FlightAware Approximate
Sun 04:20:00 PM 37.3597 -122.2383 136° Southeast  Level FlightAware Approximate
Sun 04:20:17 PM 37.5833 -122.4833 210° Southwest 316 364 9,500  Level Northern Cal TRACON
Sun 04:21:00 PM 37.2733 -122.1183 130° Southeast  Level FlightAware Approximate
Sun 04:21:14 PM 37.5086 -122.4569 164° South 325 374 11,800  Level Oakland Center
Sun 04:22:00 PM 37.1862 -121.9982 133° Southeast  Level FlightAware Approximate
Sun 04:22:16 PM 37.4317 -122.3953 148° Southeast 343 395 14,100  Level Oakland Center
Sun 04:23:17 PM 37.3831 -122.2906 120° Southeast 352 405 16,100 1,805 Climbing Oakland Center
Sun 04:24:19 PM 37.3622 -122.1647 102° East 367 422 17,800 1,854 Climbing Oakland Center
Sun 04:25:20 PM 37.3369 -122.0356 104° East 378 435 19,900 2,016 Climbing Oakland Center
Sun 04:26:21 PM 37.3111 -121.9025 104° East 390 449 21,900 1,902 Climbing Oakland Center
Sun 04:27:23 PM 37.2836 -121.7600 104° East 397 457 23,800 1,707 Climbing Oakland Center
Sun 04:28:24 PM 37.2561 -121.6183 104° East 414 476 25,400 1,659 Climbing Oakland Center
Sun 04:29:26 PM 37.2222 -121.4461 104° East 425 489 27,200 1,610 Climbing Oakland Center
Sun 04:30:27 PM 37.1928 -121.2997 104° East 432 497 28,700 1,328 Climbing Oakland Center
Sun 04:31:28 PM 37.1628 -121.1492 104° East 444 511 29,900 1,073 Climbing Oakland Center
Sun 04:32:30 PM 37.1319 -120.9972 104° East 451 519 30,900 537 Climbing Oakland Center
Sun 04:33:31 PM 37.0992 -120.8389 105° East 466 536 31,000 49 Climbing Oakland Center
Sun 04:34:33 PM 37.0647 -120.6753 105° East 487 560 31,000  Level Oakland Center
Sun 04:35:34 PM 37.0306 -120.5092 104° East 494 568 31,000  Level Oakland Center
Sun 04:36:35 PM 36.9992 -120.3381 103° East 506 582 31,000  Level Oakland Center
Sun 04:37:37 PM 37.0278 -120.1742 78° East 484 557 31,000  Level Oakland Center
Sun 04:38:38 PM 37.0642 -119.9975 75° East 493 567 31,000  Level Oakland Center
Sun 04:39:40 PM 37.1019 -119.8097 76° East 499 574 31,000  Level Oakland Center
Sun 04:40:41 PM 37.1314 -119.6606 76° East 498 573 31,000  Level Oakland Center
Sun 04:41:42 PM 37.1717 -119.4581 76° East 499 574 31,000  Level Oakland Center
Sun 04:42:44 PM 37.2047 -119.2872 76° East 504 580 31,000  Level Oakland Center
Sun 04:43:45 PM 37.2375 -119.1172 76° East 500 575 31,000  Level Oakland Center
Sun 04:44:47 PM 37.2714 -118.9464 76° East 503 579 31,000  Level Oakland Center
Sun 04:45:48 PM 37.3008 -118.7756 78° East 501 577 31,000  Level Oakland Center
Sun 04:46:49 PM 37.3339 -118.5981 77° East 508 585 31,000  Level Oakland Center
Sun 04:47:51 PM 37.3669 -118.4278 76° East 504 580 31,000  Level Oakland Center
Sun 04:48:52 PM 37.3836 -118.2533 83° East 504 580 31,000  Level Oakland Center
Sun 04:49:54 PM 37.3928 -118.0786 86° East 503 579 31,000  Level Oakland Center
Sun 04:50:55 PM 37.4031 -117.8694 86° East 501 577 31,000  Level Oakland Center
Sun 04:51:57 PM 37.4117 -117.6978 86° East 496 571 31,000  Level Oakland Center
Sun 04:52:58 PM 37.4153 -117.5236 88° East 499 574 31,000  Level Oakland Center
Sun 04:54:00 PM 37.3342 -117.3769 125° Southeast 523 602 31,000  Level Oakland Center
Sun 04:55:01 PM 37.2281 -117.2522 137° Southeast 526 605 31,000  Level Oakland Center
Sun 04:56:02 PM 37.1211 -117.1258 137° Southeast 528 608 31,000  Level Oakland Center
Sun 04:57:04 PM 37.0144 -116.9994 137° Southeast 528 608 31,000  Level Oakland Center
Sun 04:58:05 PM 36.9056 -116.8719 137° Southeast 531 611 31,000 -120 Level Oakland Center
Sun 04:58:44 PM 36.8247 -116.7614 132° Southeast 533 613 30,800 -1,545 Descending Los Angeles Center
Sun 04:59:46 PM 36.7300 -116.6281 132° Southeast 516 594 28,400 -2,304 Descending Los Angeles Center
Sun 05:00:49 PM 36.6367 -116.5031 133° Southeast 499 574 26,000 -2,352 Descending Los Angeles Center
Sun 05:01:51 PM 36.5469 -116.3789 132° Southeast 487 560 23,500 -2,565 Descending Los Angeles Center
Sun 05:02:53 PM 36.4536 -116.2539 133° Southeast 468 539 20,700 -2,758 Descending Los Angeles Center
Sun 05:03:55 PM 36.3608 -116.1219 131° Southeast 453 521 17,800 -2,658 Descending Los Angeles Center
Sun 05:04:12 PM 36.3378 -116.0947 136° Southeast 454 522 17,200 -2,250 Descending Los Angeles Center
Sun 05:04:43 PM 36.2931 -116.0344 133° Southeast 444 511 16,000 -783 Descending Los Angeles Center
Sun 05:05:44 PM 36.2219 -115.9322 131° Southeast 392 451 16,000  Level Los Angeles Center
Sun 05:05:59 PM 36.2086 -115.9081 124° Southeast 384 442 16,000 -600 Level Los Angeles Center
Sun 05:06:44 PM 36.1725 -115.8203 117° Southeast 362 417 15,400 -677 Descending Los Angeles Center
Sun 05:07:01 PM 36.1739 -115.8117 79° East 360 414 15,300 -885 Descending Los Angeles Center
Sun 05:07:45 PM 36.1389 -115.7117 113° Southeast 343 395 14,500 -892 Descending Los Angeles Center
Sun 05:08:15 PM 36.1278 -115.6772 112° Southeast 344 396 14,200 -1,180 Descending Los Angeles Center
Sun 05:08:46 PM 36.1056 -115.6053 111° Southeast 332 382 13,300 -1,429 Descending Los Angeles Center
Sun 05:09:18 PM 36.0878 -115.5494 111° Southeast 326 375 12,700 -1,279 Descending Los Angeles Center
Sun 05:09:47 PM 36.0694 -115.4975 114° Southeast 309 356 12,000 -1,161 Descending Los Angeles Center
Sun 05:10:20 PM 36.0564 -115.4536 110° East 310 357 11,500 -1,082 Descending Los Angeles Center
Sun 05:10:48 PM 36.0406 -115.4033 111° Southeast 297 342 10,900 -581 Descending Los Angeles Center
Sun 05:11:22 PM 36.0292 -115.3617 109° East 295 339 10,900 98 Level Los Angeles Center
Sun 05:11:49 PM 36.0269 -115.3200 94° East 238 274 11,000  Climbing Los Angeles Center
Sun 05:12:24 PM 36.0242 -115.2842 95° East 236 272 10,900 -98 Descending Los Angeles Center
Sun 05:12:50 PM 36.0203 -115.2397 96° East 224 258 10,900 -581 Level Los Angeles Center
Sun 05:13:26 PM 36.0164 -115.1922 96° East 225 259 10,300 -984 Descending Los Angeles Center
Sun 05:13:51 PM 36.0142 -115.1619 95° East 223 257 9,900 -968 Descending Los Angeles Center
Sun 05:14:28 PM 36.0033 -115.1225 109° East 219 252 9,300 -1,082 Descending Los Angeles Center
Sun 05:14:52 PM 35.9797 -115.1228 181° South 199 229 8,800 -1,161 Descending Los Angeles Center
Sun 05:15:30 PM 35.9492 -115.1333 196° South 204 235 8,100 -1,300 Descending Los Angeles Center
Sun 05:15:52 PM 35.9244 -115.1464 203° Southwest 214 246 7,500 -1,161 Descending Los Angeles Center
Sun 05:16:32 PM 35.9053 -115.1711 226° Southwest 201 231 6,900 -1,082 Descending Los Angeles Center
Sun 05:16:53 PM 35.9119 -115.1983 287° West 186 214 6,400 -1,258 Descending Los Angeles Center
Sun 05:17:34 PM 35.9225 -115.2286 293° West 187 215 5,600 -1,343 Descending Los Angeles Center
Sun 05:18:00 PM 35.9511 -115.2386 344° North 186 214 4,900 -762 Descending Los Angeles Center
Sun 05:18:37 PM 35.9736 -115.2447 348° North 184 212 4,800 -984 Descending Los Angeles Center
Sun 05:19:01 PM 35.9917 -115.2172 51° Northeast 163 188 3,900 -2,250 Descending Los Angeles Center

Login

Don't have an account? Register now (free) for customized features, flight alerts, and more!